Flight Track Log - Related Links

Times and Time Zones

All times are in EDT time to prevent confusion due to time zone crossing. See the SWA157 flight status page for this flight to view local times or setup timezone preferences in your user account.

Time Position Orientation Groundspeed Altitude Reporting Facility
EDT Latitude Longitude Course Direction KTS MPH feet Rate Location/Type
Thu 05:00:57 PM 18.4500 -65.9833 347° North 140 161 1,300  Level San Juan Center
Thu 05:01:58 PM 18.5167 -66.0000 347° North 240 276 3,300 2,281 Climbing San Juan Center
Thu 05:02:58 PM 18.5667 -66.0333 328° Northwest 270 311 5,900 3,000 Climbing San Juan Center
Thu 05:03:58 PM 18.6167 -66.1000 308° West 280 322 9,300 2,926 Climbing San Juan Center
Thu 05:04:59 PM 18.6833 -66.1833 310° West 330 380 11,800 2,777 Climbing San Juan Center
Thu 05:05:59 PM 18.7667 -66.2500 323° Northwest 370 426 14,900 3,200 Climbing San Juan Center
Thu 05:06:59 PM 18.8333 -66.3167 317° Northwest 370 426 18,200 2,975 Climbing San Juan Center
Thu 05:08:00 PM 18.9167 -66.4000 317° Northwest 370 426 20,900 2,380 Climbing San Juan Center
Thu 05:09:00 PM 19.0000 -66.4667 323° Northwest 390 449 23,000 2,281 Climbing San Juan Center
Thu 05:10:01 PM 19.0833 -66.5333 323° Northwest 400 460 25,500 2,083 Climbing San Juan Center
Thu 05:11:01 PM 19.1667 -66.6167 317° Northwest 390 449 27,200 1,600 Climbing San Juan Center
Thu 05:12:01 PM 19.2500 -66.6833 323° Northwest 420 483 28,700 1,488 Climbing San Juan Center
Thu 05:13:02 PM 19.3333 -66.7667 317° Northwest 440 506 30,200 1,983 Climbing San Juan Center
Thu 05:14:02 PM 19.4333 -66.8500 322° Northwest 420 483 32,700 2,400 Climbing San Juan Center
Thu 05:15:02 PM 19.5167 -66.9333 317° Northwest 410 472 35,000 1,587 Climbing San Juan Center
Thu 05:16:03 PM 19.6000 -67.0000 323° Northwest 400 460 35,900 1,041 Climbing San Juan Center
Thu 05:17:03 PM 19.6833 -67.0833 317° Northwest 410 472 37,100 1,050 Climbing San Juan Center
Thu 05:18:03 PM 19.7667 -67.1667 317° Northwest 400 460 38,000 1,041 Climbing San Juan Center
Thu 05:19:04 PM 19.8667 -67.2500 322° Northwest 410 472 39,200 992 Climbing San Juan Center
Thu 05:20:04 PM 19.9500 -67.3167 323° Northwest 410 472 40,000 397 Climbing San Juan Center
Thu 05:21:05 PM 20.0333 -67.4000 317° Northwest 410 472 40,000  Level San Juan Center
Thu 05:22:05 PM 20.1167 -67.4833 317° Northwest 410 472 40,000  Level San Juan Center
Thu 05:23:05 PM 20.2000 -67.5667 317° Northwest 400 460 40,000  Level San Juan Center
Thu 05:24:06 PM 20.3000 -67.6333 328° Northwest 400 460 40,000  Level San Juan Center
Thu 05:25:09 PM 20.4022 -67.7297 319° Northwest 433 498 40,000  Level Miami Center
Thu 05:26:09 PM 20.4839 -67.8083 318° Northwest 414 476 40,000  Level Miami Center
Thu 05:27:09 PM 20.5672 -67.8844 319° Northwest 402 463 40,000  Level Miami Center
Thu 05:28:09 PM 20.6486 -67.9611 319° Northwest 402 463 40,000  Level Miami Center
Thu 05:29:09 PM 20.7342 -68.0372 320° Northwest 402 463 40,000  Level Miami Center
Thu 05:30:09 PM 20.8139 -68.1206 316° Northwest 402 463 40,000  Level Miami Center
Thu 05:31:09 PM 20.8814 -68.2139 308° West 402 463 40,000  Level Miami Center
Thu 05:32:09 PM 20.9472 -68.3092 307° West 402 463 40,000  Level Miami Center
Thu 05:33:09 PM 21.0128 -68.4028 307° West 397 457 40,000  Level Miami Center
Thu 05:34:09 PM 21.0822 -68.4936 309° West 397 457 40,000  Level Miami Center
Thu 05:35:09 PM 21.1478 -68.5872 307° West 397 457 40,000  Level Miami Center
Thu 05:36:09 PM 21.2131 -68.6811 307° West 397 457 40,000  Level Miami Center
Thu 05:37:09 PM 21.2825 -68.7725 309° West 397 457 40,000  Level Miami Center
Thu 05:38:09 PM 21.3497 -68.8639 308° West 397 457 40,000  Level Miami Center
Thu 05:39:09 PM 21.4147 -68.9536 308° West 392 451 40,000  Level Miami Center
Thu 05:40:09 PM 21.4800 -69.0475 307° West 392 451 40,000  Level Miami Center
Thu 05:41:09 PM 21.5450 -69.1394 307° West 397 457 40,000  Level Miami Center
Thu 05:42:09 PM 21.6061 -69.2319 305° West 391 450 40,000  Level Miami Center
Thu 05:43:09 PM 21.6775 -69.3281 309° West 396 456 40,000  Level Miami Center
Thu 05:44:09 PM 21.7467 -69.4222 308° West 396 456 40,000  Level Miami Center
Thu 05:45:09 PM 21.8094 -69.5147 306° West 396 456 40,000  Level Miami Center
Thu 05:46:09 PM 21.8786 -69.6092 308° West 391 450 40,000  Level Miami Center
Thu 05:47:09 PM 21.9414 -69.7019 306° West 396 456 40,000  Level Miami Center
Thu 05:48:09 PM 22.0106 -69.7964 308° West 396 456 40,000  Level Miami Center
Thu 05:49:09 PM 22.0817 -69.8956 308° West 396 456 40,000  Level Miami Center
Thu 05:50:09 PM 22.1444 -69.9886 306° West 396 456 40,000  Level Miami Center
Thu 05:51:09 PM 22.2111 -70.0836 307° West 396 456 40,000  Level Miami Center
Thu 05:52:09 PM 22.2800 -70.1786 308° West 396 456 40,000  Level Miami Center
Thu 05:53:09 PM 22.3447 -70.2739 306° West 396 456 40,000  Level Miami Center
Thu 05:54:09 PM 22.4114 -70.3669 308° West 396 456 40,000  Level Miami Center
Thu 05:55:09 PM 22.4758 -70.4625 306° West 396 456 40,000  Level Miami Center
Thu 05:56:09 PM 22.5403 -70.5561 307° West 396 456 40,000  Level Miami Center
Thu 05:57:09 PM 22.6047 -70.6494 307° West 396 456 40,000  Level Miami Center
Thu 05:58:09 PM 22.6689 -70.7408 307° West 396 456 40,000  Level Miami Center
Thu 05:59:09 PM 22.7308 -70.8325 306° West 390 449 40,000  Level Miami Center
Thu 06:00:09 PM 22.7931 -70.9242 306° West 390 449 40,000  Level Miami Center
Thu 06:01:09 PM 22.8550 -71.0158 306° West 390 449 40,000  Level Miami Center
Thu 06:02:09 PM 22.9167 -71.1031 308° West 384 442 40,000  Level Miami Center
Thu 06:03:09 PM 22.9786 -71.1950 306° West 384 442 40,000  Level Miami Center
Thu 06:04:09 PM 23.0406 -71.2869 306° West 378 435 40,000  Level Miami Center
Thu 06:05:09 PM 23.1022 -71.3767 307° West 378 435 40,000  Level Miami Center
Thu 06:06:09 PM 23.1661 -71.4689 307° West 378 435 40,000  Level Miami Center
Thu 06:07:09 PM 23.2258 -71.5633 305° West 383 441 40,000  Level Miami Center
Thu 06:08:09 PM 23.2875 -71.6514 307° West 383 441 40,000  Level Miami Center
Thu 06:09:09 PM 23.3492 -71.7436 306° West 380 437 40,000  Level Miami Center
Thu 06:10:09 PM 23.4106 -71.8317 307° West 380 437 40,000  Level Miami Center
Thu 06:11:09 PM 23.4719 -71.9244 306° West 381 438 40,000  Level Miami Center
Thu 06:12:09 PM 23.5192 -72.0222 298° West 376 433 40,000  Level Miami Center
Thu 06:13:09 PM 23.5622 -72.1269 294° West 365 420 40,000  Level Miami Center
Thu 06:14:09 PM 23.6092 -72.2272 297° West 372 428 40,000  Level Miami Center
Thu 06:15:09 PM 23.6539 -72.3275 296° West 377 434 40,000  Level Miami Center
Thu 06:16:09 PM 23.7028 -72.4256 299° West 377 434 40,000  Level Miami Center
Thu 06:17:09 PM 23.7458 -72.5353 293° West 382 440 40,000  Level Miami Center
Thu 06:18:09 PM 23.7986 -72.6311 301° West 376 433 40,000  Level Miami Center
Thu 06:19:09 PM 23.8756 -72.6989 321° Northwest 363 418 40,000  Level Miami Center
Thu 06:20:09 PM 23.9469 -72.7828 313° West 368 423 40,000  Level Miami Center
Thu 06:21:09 PM 24.0161 -72.8669 312° West 374 430 40,000  Level Miami Center
Thu 06:22:09 PM 24.0917 -72.9578 312° West 374 430 40,000  Level Miami Center
Thu 06:23:09 PM 24.1586 -73.0422 311° West 374 430 40,000  Level Miami Center
Thu 06:24:09 PM 24.2317 -73.1289 313° West 379 436 40,000  Level Miami Center
Thu 06:25:09 PM 24.2986 -73.2158 310° West 379 436 40,000  Level Miami Center
Thu 06:26:09 PM 24.3675 -73.3028 311° West 374 430 40,000  Level Miami Center
Thu 06:27:09 PM 24.4344 -73.3875 311° West 374 430 40,000  Level Miami Center
Thu 06:28:09 PM 24.5075 -73.4722 313° West 379 436 40,000  Level Miami Center
Thu 06:29:09 PM 24.5742 -73.5594 310° West 374 430 40,000  Level Miami Center
Thu 06:30:09 PM 24.6428 -73.6400 313° West 374 430 40,000  Level Miami Center
Thu 06:31:09 PM 24.7178 -73.7247 314° West 374 430 40,000  Level Miami Center
Thu 06:32:09 PM 24.7883 -73.8078 313° West 374 430 40,000  Level Miami Center
Thu 06:33:09 PM 24.8569 -73.8883 313° West 367 422 40,000  Level Miami Center
Thu 06:34:09 PM 24.9294 -73.9714 314° West 360 414 40,000  Level Miami Center
Thu 06:35:09 PM 24.9958 -74.0500 313° West 360 414 40,000  Level Miami Center
Thu 06:36:09 PM 25.0728 -74.1400 313° West 368 423 40,000  Level Miami Center
Thu 06:37:09 PM 25.1411 -74.2167 315° West 368 423 40,000  Level Miami Center
Thu 06:38:09 PM 25.2158 -74.3069 312° West 375 432 40,000  Level Miami Center
Thu 06:39:09 PM 25.2903 -74.3950 313° West 383 441 40,000  Level Miami Center
Thu 06:40:09 PM 25.3586 -74.4717 315° West 383 441 40,000  Level Miami Center
Thu 06:41:09 PM 25.4289 -74.5578 312° West 378 435 40,000  Level Miami Center
Thu 06:42:09 PM 25.5011 -74.6369 315° West 378 435 40,000  Level Miami Center
Thu 06:43:09 PM 25.5756 -74.7186 315° West 373 429 40,000  Level Miami Center
Thu 06:44:09 PM 25.6497 -74.8000 315° West 368 423 40,000  Level Miami Center
Thu 06:45:09 PM 25.7197 -74.8797 314° West 363 418 40,000  Level Miami Center
Thu 06:46:09 PM 25.7878 -74.9569 314° West 363 418 40,000  Level Miami Center
Thu 06:47:09 PM 25.8661 -75.0389 317° Northwest 368 423 40,000  Level Miami Center
Thu 06:48:09 PM 25.9361 -75.1211 313° West 373 429 40,000  Level Miami Center
Thu 06:49:09 PM 26.0100 -75.2008 316° Northwest 367 422 40,000  Level Miami Center
Thu 06:50:09 PM 26.0906 -75.2900 315° West 378 435 40,000  Level Miami Center
Thu 06:51:09 PM 26.1561 -75.3678 313° West 373 429 40,000  Level Miami Center
Thu 06:52:09 PM 26.2300 -75.4503 315° West 362 417 40,000  Level Miami Center
Thu 06:53:09 PM 26.3017 -75.5281 316° Northwest 367 422 40,000  Level Miami Center
Thu 06:54:09 PM 26.3694 -75.6064 314° West 367 422 40,000 150 Level Miami Center
Thu 06:55:09 PM 26.4453 -75.6936 314° West 366 421 40,300 500 Climbing Miami Center
Thu 06:56:09 PM 26.5192 -75.7764 315° West 374 430 41,000 350 Climbing Miami Center
Thu 06:57:09 PM 26.5864 -75.8503 316° Northwest 368 423 41,000  Level Miami Center
Thu 06:58:09 PM 26.6600 -75.9356 314° West 368 423 41,000  Level Miami Center
Thu 06:59:09 PM 26.7294 -76.0142 315° West 373 429 41,000  Level Miami Center
Thu 07:00:09 PM 26.8031 -76.0975 315° West 367 422 41,000  Level Miami Center
Thu 07:01:09 PM 26.8831 -76.1900 314° West 367 422 41,000  Level Miami Center
Thu 07:02:09 PM 26.9503 -76.2642 315° West 364 419 41,000  Level Miami Center
Thu 07:03:09 PM 27.0236 -76.3503 314° West 363 418 41,000  Level Miami Center
Thu 07:04:09 PM 27.0928 -76.4269 315° West 365 420 41,000  Level Miami Center
Thu 07:05:09 PM 27.1642 -76.5083 315° West 359 413 41,000  Level Miami Center
Thu 07:06:09 PM 27.2394 -76.6039 312° West 374 430 41,000  Level Miami Center
Thu 07:07:09 PM 27.3086 -76.6786 316° Northwest 369 425 41,000  Level Miami Center
Thu 07:08:09 PM 27.3839 -76.7650 314° West 369 425 41,000  Level Miami Center
Thu 07:09:09 PM 27.4528 -76.8422 315° West 369 425 41,000  Level Miami Center
Thu 07:10:09 PM 27.5278 -76.9289 314° West 380 437 41,000  Level Miami Center
Thu 07:11:09 PM 27.6008 -77.0133 314° West 374 430 41,000  Level Miami Center
Thu 07:12:09 PM 27.6739 -77.1094 311° West 374 430 41,000  Level Miami Center
Thu 07:13:09 PM 27.7447 -77.1847 317° Northwest 369 425 41,000  Level Miami Center
Thu 07:14:09 PM 27.8175 -77.2789 311° West 369 425 41,000  Level Miami Center
Thu 07:15:09 PM 27.8906 -77.3567 317° Northwest 369 425 41,000  Level Miami Center
Thu 07:16:09 PM 27.9653 -77.4442 314° West 375 432 41,000  Level Miami Center
Thu 07:17:09 PM 28.0400 -77.5317 314° West 375 432 41,000  Level Miami Center
Thu 07:18:09 PM 28.1169 -77.6167 316° Northwest 375 432 41,000  Level Miami Center
Thu 07:19:09 PM 28.2022 -77.6856 325° Northwest 394 453 41,000  Level Miami Center
Thu 07:20:09 PM 28.3019 -77.7453 332° Northwest 387 445 41,000  Level Miami Center
Thu 07:21:09 PM 28.3956 -77.8050 331° Northwest 394 453 41,000  Level Miami Center
Thu 07:22:09 PM 28.4975 -77.8675 332° Northwest 397 457 41,000  Level Miami Center
Thu 07:23:09 PM 28.5972 -77.9275 332° Northwest 397 457 41,000  Level Miami Center
Thu 07:24:09 PM 28.6947 -77.9875 332° Northwest 398 458 41,000  Level Miami Center
Thu 07:25:09 PM 28.7861 -78.0478 330° Northwest 393 452 41,000  Level Miami Center
Thu 07:26:09 PM 28.8836 -78.1078 332° Northwest 393 452 41,000  Level Miami Center
Thu 07:27:09 PM 28.9792 -78.1683 331° Northwest 395 455 41,000  Level Miami Center
Thu 07:28:09 PM 29.0725 -78.2289 330° Northwest 398 458 41,000  Level Miami Center
Thu 07:29:09 PM 29.1678 -78.2894 331° Northwest 408 470 41,000  Level Miami Center
Thu 07:30:09 PM 29.2653 -78.3503 331° Northwest 396 456 41,000  Level Miami Center
Thu 07:31:09 PM 29.3628 -78.4133 331° Northwest 406 467 41,000  Level Miami Center
Thu 07:32:09 PM 29.4517 -78.4694 331° Northwest 396 456 41,000  Level Miami Center
Thu 07:33:09 PM 29.5703 -78.4975 348° North 401 461 41,000  Level Miami Center
Thu 07:34:09 PM 29.6933 -78.5042 357° North 418 481 41,000  Level Miami Center
Thu 07:35:09 PM 29.8142 -78.5083 358° North 433 498 41,000  Level Miami Center
Thu 07:36:09 PM 29.9308 -78.5125 358° North 432 497 41,000  Level Miami Center
Thu 07:37:17 PM 30.0786 -78.5122 360° North 413 475 41,000  Level Jacksonville Center
Thu 07:38:17 PM 30.1933 -78.5094 North 418 481 41,000  Level Jacksonville Center
Thu 07:39:17 PM 30.3125 -78.5161 357° North 418 481 41,000  Level Jacksonville Center
Thu 07:40:17 PM 30.4317 -78.5203 358° North 424 488 41,000  Level Jacksonville Center
Thu 07:41:17 PM 30.5500 -78.5028 North 430 495 41,000  Level Jacksonville Center
Thu 07:42:17 PM 30.6722 -78.4803 North 430 495 41,000  Level Jacksonville Center
Thu 07:43:17 PM 30.7989 -78.4597 North 442 509 41,000  Level Jacksonville Center
Thu 07:44:18 PM 30.9236 -78.4394 North 442 509 41,000  Level Jacksonville Center
Thu 07:45:17 PM 31.0439 -78.4217 North 440 506 41,000  Level Jacksonville Center
Thu 07:46:18 PM 31.1642 -78.3989 North 445 512 41,000  Level Jacksonville Center
Thu 07:47:17 PM 31.2847 -78.3811 North 440 506 41,000  Level Jacksonville Center
Thu 07:48:17 PM 31.4050 -78.3606 North 440 506 41,000  Level Jacksonville Center
Thu 07:49:17 PM 31.5253 -78.3403 North 440 506 41,000  Level Jacksonville Center
Thu 07:50:17 PM 31.6436 -78.3222 North 439 505 41,000  Level Jacksonville Center
Thu 07:51:17 PM 31.7639 -78.3014 North 439 505 41,000  Level Jacksonville Center
Thu 07:52:17 PM 31.8842 -78.2808 North 433 498 41,000  Level Jacksonville Center
Thu 07:53:18 PM 32.0047 -78.2625 North 433 498 41,000  Level Jacksonville Center
Thu 07:54:17 PM 32.1250 -78.2417 North 433 498 41,000  Level Jacksonville Center
Thu 07:55:17 PM 32.2306 -78.2192 10° North 433 498 41,000  Level Jacksonville Center
Thu 07:56:18 PM 32.3531 -78.2031 North 433 498 41,000  Level Jacksonville Center
Thu 07:57:17 PM 32.4733 -78.1822 North 433 498 41,000  Level Jacksonville Center
Thu 07:58:18 PM 32.5917 -78.1636 North 433 498 41,000  Level Jacksonville Center
Thu 07:59:18 PM 32.7119 -78.1450 North 433 498 41,000  Level Jacksonville Center
Thu 08:00:18 PM 32.8281 -78.1242 North 428 493 41,000  Level Jacksonville Center
Thu 08:01:17 PM 32.9444 -78.1081 North 423 487 41,000  Level Jacksonville Center
Thu 08:02:17 PM 33.0625 -78.0869 North 423 487 41,000  Level Jacksonville Center
Thu 08:03:17 PM 33.1789 -78.0708 North 423 487 41,000  Level Jacksonville Center
Thu 08:04:54 PM 33.3708 -78.0383 North 424 488 41,000  Level Washington Center
Thu 08:05:55 PM 33.4881 -78.0192 North 424 488 41,000  Level Washington Center
Thu 08:06:56 PM 33.6072 -78.0003 North 429 494 41,000  Level Washington Center
Thu 08:07:56 PM 33.7267 -77.9789 North 429 494 41,000  Level Washington Center
Thu 08:08:57 PM 33.8481 -77.9597 North 429 494 41,000  Level Washington Center
Thu 08:09:55 PM 33.9800 -77.9358 North 434 499 41,000  Level Washington Center
Thu 08:10:56 PM 34.0972 -77.9142 North 434 499 41,000  Level Washington Center
Thu 08:11:54 PM 34.2164 -77.8975 North 429 494 41,000  Level Washington Center
Thu 08:12:54 PM 34.3378 -77.8783 North 429 494 41,000  Level Washington Center
Thu 08:13:54 PM 34.4547 -77.8664 North 429 494 41,000  Level Washington Center
Thu 08:14:55 PM 34.5719 -77.8544 North 429 494 41,000  Level Washington Center
Thu 08:15:55 PM 34.6889 -77.8425 North 424 488 41,000  Level Washington Center
Thu 08:16:56 PM 34.8081 -77.8281 North 424 488 41,000  Level Washington Center
Thu 08:17:54 PM 34.9231 -77.8136 North 419 482 41,000  Level Washington Center
Thu 08:18:55 PM 35.0403 -77.8042 North 419 482 41,000  Level Washington Center
Thu 08:19:55 PM 35.1489 -77.7892 North 432 497 41,000  Level Washington Center
Thu 08:20:56 PM 35.2681 -77.7772 North 427 491 41,000  Level Washington Center
Thu 08:21:56 PM 35.3914 -77.7653 North 427 491 41,000  Level Washington Center
Thu 08:22:54 PM 35.5147 -77.7533 North 433 498 41,000 -303 Level Washington Center
Thu 08:23:55 PM 35.6361 -77.7414 North 433 498 40,400 -787 Descending Washington Center
Thu 08:24:56 PM 35.7572 -77.7267 North 439 505 39,400 -706 Descending Washington Center
Thu 08:25:54 PM 35.8786 -77.7147 North 439 505 39,000 -661 Descending Washington Center
Thu 08:26:54 PM 35.9956 -77.6997 North 433 498 38,100 -950 Descending Washington Center
Thu 08:27:54 PM 36.1131 -77.6694 12° North 426 490 37,100 -942 Descending Washington Center
Thu 08:28:55 PM 36.2303 -77.6442 10° North 426 490 36,200 -942 Descending Washington Center
Thu 08:29:55 PM 36.3519 -77.6139 11° North 431 496 35,200 -1,041 Descending Washington Center
Thu 08:30:56 PM 36.4733 -77.5808 12° North 426 490 34,100 -1,041 Descending Washington Center
Thu 08:31:56 PM 36.5844 -77.5528 11° North 413 475 33,100 -1,050 Descending Washington Center
Thu 08:32:56 PM 36.6892 -77.5294 10° North 394 453 32,000 -1,068 Descending Washington Center
Thu 08:33:54 PM 36.7897 -77.5033 12° North 382 440 31,000 -1,017 Descending Washington Center
Thu 08:34:54 PM 36.8819 -77.4797 12° North 355 409 30,000 -1,438 Descending Washington Center
Thu 08:35:55 PM 36.9739 -77.4558 12° North 342 394 28,100 -1,820 Descending Washington Center
Thu 08:36:56 PM 37.0703 -77.4322 11° North 336 387 26,300 -1,916 Descending Washington Center
Thu 08:37:54 PM 37.1689 -77.4058 12° North 347 399 24,300 -2,034 Descending Washington Center
Thu 08:38:54 PM 37.2650 -77.3819 11° North 352 405 22,300 -1,140 Descending Washington Center
Thu 08:39:55 PM 37.3553 -77.3581 12° North 347 399 22,000 -149 Descending Washington Center
Thu 08:40:55 PM 37.4494 -77.3342 11° North 342 394 22,000  Level Washington Center
Thu 08:41:56 PM 37.5436 -77.3128 10° North 337 388 22,000  Level Washington Center
Thu 08:42:56 PM 37.6356 -77.2939 North 337 388 22,000  Level Washington Center
Thu 08:43:55 PM 37.7256 -77.2722 11° North 337 388 22,000  Level Washington Center
Thu 08:44:54 PM 37.8197 -77.2533 North 337 388 22,000  Level Washington Center
Thu 08:45:55 PM 37.9139 -77.2342 North 337 388 22,000  Level Washington Center
Thu 08:46:56 PM 38.0058 -77.2150 North 337 388 22,000  Level Washington Center
Thu 08:47:54 PM 38.0894 -77.2011 North 337 388 22,000 -756 Level Washington Center
Thu 08:48:55 PM 38.1836 -77.1819 North 337 388 20,500 -2,083 Descending Washington Center
Thu 08:49:55 PM 38.2778 -77.1603 10° North 320 368 17,800 -2,380 Descending Washington Center
Thu 08:50:56 PM 38.3531 -77.1458 North 312 359 15,700 -1,388 Descending Washington Center
Thu 08:51:56 PM 38.4267 -77.0839 33° Northeast 300 345 15,000 -1,373 Descending Washington Center
Thu 08:52:54 PM 38.4922 -77.0056 43° Northeast 306 352 13,000 -1,462 Descending Washington Center
Thu 08:53:55 PM 38.5494 -76.9350 44° Northeast 301 346 12,100 -541 Descending Washington Center
Thu 08:54:56 PM 38.6022 -76.8722 43° Northeast 272 313 11,900 -843 Descending Washington Center
Thu 08:55:56 PM 38.6550 -76.8067 44° Northeast 266 306 10,400 -1,192 Descending Washington Center
Thu 08:57:27 PM 38.7333 -76.6833 51° Northeast 264 304 8,900 -1,185 Descending Potomac TRACON
Thu 08:58:33 PM 38.7667 -76.6000 63° Northeast 258 297 7,300 -1,417 Descending Potomac TRACON
Thu 08:59:34 PM 38.8167 -76.5333 46° Northeast 252 290 5,900 -1,438 Descending Potomac TRACON
Thu 09:00:34 PM 38.8667 -76.5333 360° North 221 254 4,400 -950 Descending Potomac TRACON
Thu 09:01:34 PM 38.9333 -76.5500 349° North 220 253 4,000 -496 Descending Potomac TRACON
Thu 09:02:35 PM 38.9833 -76.5500 360° North 182 209 3,400 -446 Descending Potomac TRACON
Thu 09:03:35 PM 39.0333 -76.5667 345° North 185 213 3,100 -579 Descending Potomac TRACON
Thu 09:04:29 PM 39.0833 -76.5833 345° North 162 186 2,300 -850 Descending Potomac TRACON
Thu 09:05:35 PM 39.1167 -76.6167 322° Northwest 136 157 1,400 -700 Descending Potomac TRACON
Thu 09:06:29 PM 39.1333 -76.6333 322° Northwest 120 138 900 -556 Descending Potomac TRACON
Thu 09:08:00 PM 39.1667 -76.6667 339° North  Level FlightAware Approximate
Thu 09:15:00 PM 39.1754 -76.6683 339° North  Level Estimated
Thu 09:16:00 PM 39.1754 -76.6683 339° North  Level Estimated
Thu 09:17:00 PM 39.1754 -76.6683 339° North  Level Estimated
Thu 09:18:00 PM 39.1754 -76.6683 339° North  Level Estimated
Thu 09:19:00 PM 39.1754 -76.6683 339° North  Level Estimated

Login

Don't have an account? Register now (free) for customized features, flight alerts, and more!